sensor_id;sensor_type;location;lat;lon;timestamp;pressure;altitude;pressure_sealevel;temperature;humidity
50634;BME280;36596;55.798;38.462;2022-08-26T00:01:42;100243.75;;;20.50;100.00
50634;BME280;36596;55.798;38.462;2022-08-26T00:04:09;100254.84;;;20.50;100.00
50634;BME280;36596;55.798;38.462;2022-08-26T00:06:35;100249.06;;;20.42;100.00
50634;BME280;36596;55.798;38.462;2022-08-26T00:09:02;100252.03;;;20.37;100.00
50634;BME280;36596;55.798;38.462;2022-08-26T00:11:28;100251.00;;;20.30;100.00
50634;BME280;36596;55.798;38.462;2022-08-26T00:13:55;100251.34;;;20.28;100.00
50634;BME280;36596;55.798;38.462;2022-08-26T00:16:25;100254.22;;;20.32;100.00
50634;BME280;36596;55.798;38.462;2022-08-26T00:18:52;100254.38;;;20.35;100.00
50634;BME280;36596;55.798;38.462;2022-08-26T00:21:18;100247.66;;;20.36;100.00
50634;BME280;36596;55.798;38.462;2022-08-26T00:23:45;100248.94;;;20.39;100.00
50634;BME280;36596;55.798;38.462;2022-08-26T00:26:11;100250.91;;;20.38;100.00
50634;BME280;36596;55.798;38.462;2022-08-26T00:28:40;100255.50;;;20.34;100.00
50634;BME280;36596;55.798;38.462;2022-08-26T00:31:06;100246.94;;;20.27;100.00
50634;BME280;36596;55.798;38.462;2022-08-26T00:33:32;100243.22;;;20.23;100.00
50634;BME280;36596;55.798;38.462;2022-08-26T00:36:01;100250.06;;;20.25;100.00
50634;BME280;36596;55.798;38.462;2022-08-26T00:38:26;100246.59;;;20.29;100.00
50634;BME280;36596;55.798;38.462;2022-08-26T00:40:55;100256.66;;;20.33;100.00
50634;BME280;36596;55.798;38.462;2022-08-26T00:43:24;100245.09;;;20.31;100.00
50634;BME280;36596;55.798;38.462;2022-08-26T00:46:04;100249.16;;;20.34;100.00
50634;BME280;36596;55.798;38.462;2022-08-26T00:48:33;100257.69;;;20.29;100.00
50634;BME280;36596;55.798;38.462;2022-08-26T00:51:02;100252.13;;;20.29;100.00
50634;BME280;36596;55.798;38.462;2022-08-26T00:53:31;100248.75;;;20.23;100.00
50634;BME280;36596;55.798;38.462;2022-08-26T00:56:00;100252.84;;;20.38;100.00
50634;BME280;36596;55.798;38.462;2022-08-26T00:58:30;100250.06;;;20.25;100.00
50634;BME280;36596;55.798;38.462;2022-08-26T01:00:59;100247.38;;;20.17;100.00
50634;BME280;36596;55.798;38.462;2022-08-26T01:03:27;100261.22;;;20.17;100.00
50634;BME280;36596;55.798;38.462;2022-08-26T01:05:56;100255.22;;;20.15;100.00
50634;BME280;36596;55.798;38.462;2022-08-26T01:08:27;100245.03;;;20.06;100.00
50634;BME280;36596;55.798;38.462;2022-08-26T01:10:53;100250.56;;;20.06;100.00
50634;BME280;36596;55.798;38.462;2022-08-26T01:13:21;100253.19;;;20.03;100.00
50634;BME280;36596;55.798;38.462;2022-08-26T01:15:54;100256.28;;;20.01;100.00
50634;BME280;36596;55.798;38.462;2022-08-26T01:18:21;100244.50;;;19.92;100.00
50634;BME280;36596;55.798;38.462;2022-08-26T01:21:06;100251.31;;;19.95;100.00
50634;BME280;36596;55.798;38.462;2022-08-26T01:23:40;100248.00;;;19.80;100.00
50634;BME280;36596;55.798;38.462;2022-08-26T01:26:11;100251.16;;;19.70;100.00
50634;BME280;36596;55.798;38.462;2022-08-26T01:28:38;100256.59;;;19.58;100.00
50634;BME280;36596;55.798;38.462;2022-08-26T01:31:30;100258.31;;;19.50;100.00
50634;BME280;36596;55.798;38.462;2022-08-26T01:34:16;100257.34;;;19.46;100.00
50634;BME280;36596;55.798;38.462;2022-08-26T01:36:45;100266.59;;;19.29;100.00
50634;BME280;36596;55.798;38.462;2022-08-26T01:39:12;100259.13;;;19.20;100.00
50634;BME280;36596;55.798;38.462;2022-08-26T01:41:38;100263.69;;;19.16;100.00
50634;BME280;36596;55.798;38.462;2022-08-26T01:44:08;100274.28;;;19.14;100.00
50634;BME280;36596;55.798;38.462;2022-08-26T01:46:34;100267.19;;;19.04;100.00
50634;BME280;36596;55.798;38.462;2022-08-26T01:49:03;100263.78;;;18.99;100.00
50634;BME280;36596;55.798;38.462;2022-08-26T01:51:32;100273.41;;;18.93;100.00
50634;BME280;36596;55.798;38.462;2022-08-26T01:54:03;100271.66;;;18.88;100.00
50634;BME280;36596;55.798;38.462;2022-08-26T01:56:30;100269.84;;;18.83;100.00
50634;BME280;36596;55.798;38.462;2022-08-26T01:58:58;100277.19;;;18.79;100.00
50634;BME280;36596;55.798;38.462;2022-08-26T02:01:25;100268.13;;;18.70;100.00
50634;BME280;36596;55.798;38.462;2022-08-26T02:06:39;100280.66;;;18.59;100.00
50634;BME280;36596;55.798;38.462;2022-08-26T02:09:06;100288.16;;;18.49;100.00
50634;BME280;36596;55.798;38.462;2022-08-26T02:11:32;100298.25;;;18.45;100.00
50634;BME280;36596;55.798;38.462;2022-08-26T02:14:07;100296.13;;;18.42;100.00
50634;BME280;36596;55.798;38.462;2022-08-26T02:16:38;100302.16;;;18.36;100.00
50634;BME280;36596;55.798;38.462;2022-08-26T02:19:18;100303.94;;;18.31;100.00
50634;BME280;36596;55.798;38.462;2022-08-26T02:21:46;100298.41;;;18.23;100.00
50634;BME280;36596;55.798;38.462;2022-08-26T02:24:16;100310.31;;;18.23;100.00
50634;BME280;36596;55.798;38.462;2022-08-26T02:26:43;100312.88;;;18.20;100.00
50634;BME280;36596;55.798;38.462;2022-08-26T02:29:21;100319.25;;;18.20;100.00
50634;BME280;36596;55.798;38.462;2022-08-26T02:31:49;100306.72;;;18.14;100.00
50634;BME280;36596;55.798;38.462;2022-08-26T02:34:20;100308.03;;;18.16;100.00
50634;BME280;36596;55.798;38.462;2022-08-26T02:36:47;100305.91;;;18.13;100.00
50634;BME280;36596;55.798;38.462;2022-08-26T02:39:14;100310.78;;;18.16;100.00
50634;BME280;36596;55.798;38.462;2022-08-26T02:41:42;100313.88;;;18.15;100.00
50634;BME280;36596;55.798;38.462;2022-08-26T02:44:08;100313.06;;;18.14;100.00
50634;BME280;36596;55.798;38.462;2022-08-26T02:46:34;100316.63;;;18.15;100.00
50634;BME280;36596;55.798;38.462;2022-08-26T02:49:03;100320.53;;;18.14;100.00
50634;BME280;36596;55.798;38.462;2022-08-26T02:51:32;100324.75;;;18.20;100.00
50634;BME280;36596;55.798;38.462;2022-08-26T02:53:58;100324.09;;;18.23;100.00
50634;BME280;36596;55.798;38.462;2022-08-26T02:56:26;100322.16;;;18.24;100.00
50634;BME280;36596;55.798;38.462;2022-08-26T02:58:52;100322.31;;;18.27;100.00
50634;BME280;36596;55.798;38.462;2022-08-26T03:01:29;100304.25;;;18.39;100.00
50634;BME280;36596;55.798;38.462;2022-08-26T03:03:57;100302.63;;;18.46;100.00
50634;BME280;36596;55.798;38.462;2022-08-26T03:06:24;100303.44;;;18.56;100.00
50634;BME280;36596;55.798;38.462;2022-08-26T03:08:50;100304.53;;;18.63;100.00
50634;BME280;36596;55.798;38.462;2022-08-26T03:11:17;100304.03;;;18.70;100.00
50634;BME280;36596;55.798;38.462;2022-08-26T03:13:43;100303.19;;;18.78;100.00
50634;BME280;36596;55.798;38.462;2022-08-26T03:16:10;100298.28;;;18.84;100.00
50634;BME280;36596;55.798;38.462;2022-08-26T03:18:36;100291.00;;;18.88;100.00
50634;BME280;36596;55.798;38.462;2022-08-26T03:21:11;100307.22;;;18.98;100.00
50634;BME280;36596;55.798;38.462;2022-08-26T03:23:38;100295.84;;;19.00;100.00
50634;BME280;36596;55.798;38.462;2022-08-26T03:26:05;100306.38;;;19.07;100.00
50634;BME280;36596;55.798;38.462;2022-08-26T03:28:32;100301.50;;;19.12;100.00
50634;BME280;36596;55.798;38.462;2022-08-26T03:30:57;100296.09;;;19.16;100.00
50634;BME280;36596;55.798;38.462;2022-08-26T03:33:24;100304.69;;;19.23;100.00
50634;BME280;36596;55.798;38.462;2022-08-26T03:35:51;100301.88;;;19.32;100.00
50634;BME280;36596;55.798;38.462;2022-08-26T03:38:18;100306.22;;;19.42;100.00
50634;BME280;36596;55.798;38.462;2022-08-26T03:40:46;100302.78;;;19.66;100.00
50634;BME280;36596;55.798;38.462;2022-08-26T03:43:14;100298.63;;;19.60;100.00
50634;BME280;36596;55.798;38.462;2022-08-26T03:45:41;100305.09;;;19.64;100.00
50634;BME280;36596;55.798;38.462;2022-08-26T03:48:07;100303.28;;;19.68;100.00
50634;BME280;36596;55.798;38.462;2022-08-26T03:50:33;100303.72;;;19.79;100.00
50634;BME280;36596;55.798;38.462;2022-08-26T03:53:00;100294.41;;;19.83;100.00
50634;BME280;36596;55.798;38.462;2022-08-26T03:55:29;100290.63;;;19.88;100.00
50634;BME280;36596;55.798;38.462;2022-08-26T03:57:58;100290.09;;;19.95;100.00
50634;BME280;36596;55.798;38.462;2022-08-26T04:00:24;100286.06;;;20.04;100.00
50634;BME280;36596;55.798;38.462;2022-08-26T04:02:50;100287.84;;;20.09;100.00
50634;BME280;36596;55.798;38.462;2022-08-26T04:05:18;100291.00;;;20.20;100.00
50634;BME280;36596;55.798;38.462;2022-08-26T04:07:45;100292.41;;;20.26;100.00
50634;BME280;36596;55.798;38.462;2022-08-26T04:10:14;100291.28;;;20.39;100.00
50634;BME280;36596;55.798;38.462;2022-08-26T04:12:41;100288.44;;;20.48;100.00
50634;BME280;36596;55.798;38.462;2022-08-26T04:15:10;100292.53;;;20.63;100.00
50634;BME280;36596;55.798;38.462;2022-08-26T04:17:36;100284.16;;;20.72;100.00
50634;BME280;36596;55.798;38.462;2022-08-26T04:20:04;100293.63;;;20.83;100.00
50634;BME280;36596;55.798;38.462;2022-08-26T04:22:30;100286.38;;;20.91;100.00
50634;BME280;36596;55.798;38.462;2022-08-26T04:24:56;100283.50;;;21.00;100.00
50634;BME280;36596;55.798;38.462;2022-08-26T04:27:22;100290.09;;;21.07;100.00
50634;BME280;36596;55.798;38.462;2022-08-26T04:29:48;100289.03;;;21.12;100.00
50634;BME280;36596;55.798;38.462;2022-08-26T04:32:14;100289.63;;;21.18;100.00
50634;BME280;36596;55.798;38.462;2022-08-26T04:34:40;100283.97;;;21.26;100.00
50634;BME280;36596;55.798;38.462;2022-08-26T04:37:07;100284.19;;;21.34;100.00
50634;BME280;36596;55.798;38.462;2022-08-26T04:39:32;100287.75;;;21.46;100.00
50634;BME280;36596;55.798;38.462;2022-08-26T04:41:59;100296.31;;;21.54;100.00
50634;BME280;36596;55.798;38.462;2022-08-26T04:44:27;100303.72;;;21.62;100.00
50634;BME280;36596;55.798;38.462;2022-08-26T04:46:53;100306.72;;;21.69;100.00
50634;BME280;36596;55.798;38.462;2022-08-26T04:49:19;100298.59;;;21.76;100.00
50634;BME280;36596;55.798;38.462;2022-08-26T04:51:46;100296.63;;;21.89;100.00
50634;BME280;36596;55.798;38.462;2022-08-26T04:54:14;100299.00;;;22.03;100.00
50634;BME280;36596;55.798;38.462;2022-08-26T04:56:42;100303.69;;;22.15;100.00
50634;BME280;36596;55.798;38.462;2022-08-26T04:59:10;100297.38;;;22.30;100.00
50634;BME280;36596;55.798;38.462;2022-08-26T05:01:48;100302.81;;;22.39;100.00
50634;BME280;36596;55.798;38.462;2022-08-26T05:04:15;100304.38;;;22.52;100.00
50634;BME280;36596;55.798;38.462;2022-08-26T05:06:41;100304.28;;;22.65;100.00
50634;BME280;36596;55.798;38.462;2022-08-26T05:09:07;100305.38;;;22.76;100.00
50634;BME280;36596;55.798;38.462;2022-08-26T05:11:33;100303.41;;;22.93;100.00
50634;BME280;36596;55.798;38.462;2022-08-26T05:14:00;100299.41;;;23.06;100.00
50634;BME280;36596;55.798;38.462;2022-08-26T05:16:29;100287.09;;;23.07;100.00
50634;BME280;36596;55.798;38.462;2022-08-26T05:18:56;100286.66;;;23.21;100.00
50634;BME280;36596;55.798;38.462;2022-08-26T05:21:26;100299.66;;;23.49;100.00
50634;BME280;36596;55.798;38.462;2022-08-26T05:23:55;100285.00;;;23.52;100.00
50634;BME280;36596;55.798;38.462;2022-08-26T05:26:23;100286.47;;;23.65;100.00
50634;BME280;36596;55.798;38.462;2022-08-26T05:28:50;100288.06;;;23.82;100.00
50634;BME280;36596;55.798;38.462;2022-08-26T05:31:23;100288.34;;;23.97;100.00
50634;BME280;36596;55.798;38.462;2022-08-26T05:33:49;100282.13;;;24.03;100.00
50634;BME280;36596;55.798;38.462;2022-08-26T05:36:20;100279.94;;;24.13;100.00
50634;BME280;36596;55.798;38.462;2022-08-26T05:38:47;100281.75;;;24.24;100.00
50634;BME280;36596;55.798;38.462;2022-08-26T05:41:22;100282.53;;;24.45;100.00
50634;BME280;36596;55.798;38.462;2022-08-26T05:43:50;100271.16;;;24.53;100.00
50634;BME280;36596;55.798;38.462;2022-08-26T05:46:19;100276.69;;;24.73;100.00
50634;BME280;36596;55.798;38.462;2022-08-26T05:48:56;100271.31;;;24.84;100.00
50634;BME280;36596;55.798;38.462;2022-08-26T05:51:43;100282.94;;;25.12;100.00
50634;BME280;36596;55.798;38.462;2022-08-26T05:54:13;100275.13;;;25.22;100.00
50634;BME280;36596;55.798;38.462;2022-08-26T05:56:46;100287.88;;;25.46;100.00
50634;BME280;36596;55.798;38.462;2022-08-26T05:59:13;100289.59;;;25.54;100.00
50634;BME280;36596;55.798;38.462;2022-08-26T06:01:41;100291.69;;;25.61;100.00
50634;BME280;36596;55.798;38.462;2022-08-26T06:04:08;100281.72;;;25.63;100.00
50634;BME280;36596;55.798;38.462;2022-08-26T06:06:35;100282.31;;;25.76;100.00
50634;BME280;36596;55.798;38.462;2022-08-26T06:09:04;100285.28;;;25.91;100.00
50634;BME280;36596;55.798;38.462;2022-08-26T06:11:35;100281.47;;;26.03;100.00
50634;BME280;36596;55.798;38.462;2022-08-26T06:14:09;100281.56;;;26.10;100.00
50634;BME280;36596;55.798;38.462;2022-08-26T06:16:40;100282.13;;;26.23;100.00
50634;BME280;36596;55.798;38.462;2022-08-26T06:19:12;100271.47;;;26.36;100.00
50634;BME280;36596;55.798;38.462;2022-08-26T06:22:31;100276.06;;;26.55;100.00
50634;BME280;36596;55.798;38.462;2022-08-26T06:25:17;100270.28;;;26.74;100.00
50634;BME280;36596;55.798;38.462;2022-08-26T06:28:02;100283.63;;;26.92;98.27
50634;BME280;36596;55.798;38.462;2022-08-26T06:30:28;100270.84;;;26.94;97.77
50634;BME280;36596;55.798;38.462;2022-08-26T06:32:54;100276.13;;;27.07;95.68
50634;BME280;36596;55.798;38.462;2022-08-26T06:35:20;100289.41;;;27.17;94.58
50634;BME280;36596;55.798;38.462;2022-08-26T06:37:46;100272.66;;;27.24;95.16
50634;BME280;36596;55.798;38.462;2022-08-26T06:40:13;100272.28;;;27.26;94.55
50634;BME280;36596;55.798;38.462;2022-08-26T06:42:40;100270.00;;;27.42;92.92
50634;BME280;36596;55.798;38.462;2022-08-26T06:45:07;100274.13;;;27.59;91.07
50634;BME280;36596;55.798;38.462;2022-08-26T06:47:35;100267.75;;;27.66;88.29
50634;BME280;36596;55.798;38.462;2022-08-26T06:50:01;100279.44;;;27.82;88.69
50634;BME280;36596;55.798;38.462;2022-08-26T06:52:29;100268.63;;;27.84;86.92
50634;BME280;36596;55.798;38.462;2022-08-26T06:54:54;100270.69;;;27.91;86.78
50634;BME280;36596;55.798;38.462;2022-08-26T06:57:20;100278.75;;;28.03;87.58
50634;BME280;36596;55.798;38.462;2022-08-26T06:59:46;100279.59;;;28.15;84.41
50634;BME280;36596;55.798;38.462;2022-08-26T07:02:13;100282.00;;;28.20;84.29
50634;BME280;36596;55.798;38.462;2022-08-26T07:04:40;100276.41;;;28.20;83.81
50634;BME280;36596;55.798;38.462;2022-08-26T07:07:06;100276.81;;;28.25;83.71
50634;BME280;36596;55.798;38.462;2022-08-26T07:09:33;100275.22;;;28.32;82.50
50634;BME280;36596;55.798;38.462;2022-08-26T07:12:02;100278.06;;;28.42;83.43
50634;BME280;36596;55.798;38.462;2022-08-26T07:14:28;100276.50;;;28.52;82.29
50634;BME280;36596;55.798;38.462;2022-08-26T07:16:58;100258.88;;;28.70;84.37
50634;BME280;36596;55.798;38.462;2022-08-26T07:19:28;100260.53;;;28.82;81.32
50634;BME280;36596;55.798;38.462;2022-08-26T07:21:54;100278.56;;;29.09;81.68
50634;BME280;36596;55.798;38.462;2022-08-26T07:24:22;100275.75;;;29.13;80.96
50634;BME280;36596;55.798;38.462;2022-08-26T07:26:48;100266.91;;;29.15;80.47
50634;BME280;36596;55.798;38.462;2022-08-26T07:29:16;100272.13;;;29.20;75.72
50634;BME280;36596;55.798;38.462;2022-08-26T07:31:43;100266.53;;;29.31;75.29
50634;BME280;36596;55.798;38.462;2022-08-26T07:34:12;100281.38;;;29.35;71.15
50634;BME280;36596;55.798;38.462;2022-08-26T07:36:38;100277.72;;;29.41;70.87
50634;BME280;36596;55.798;38.462;2022-08-26T07:39:06;100276.50;;;29.50;73.19
50634;BME280;36596;55.798;38.462;2022-08-26T07:41:32;100259.25;;;29.51;73.54
50634;BME280;36596;55.798;38.462;2022-08-26T07:43:57;100270.47;;;29.58;70.89
50634;BME280;36596;55.798;38.462;2022-08-26T07:46:24;100267.63;;;29.66;72.25
50634;BME280;36596;55.798;38.462;2022-08-26T07:48:50;100265.22;;;29.68;71.17
50634;BME280;36596;55.798;38.462;2022-08-26T07:51:19;100262.00;;;29.73;71.36
50634;BME280;36596;55.798;38.462;2022-08-26T07:53:45;100266.78;;;29.79;70.83
50634;BME280;36596;55.798;38.462;2022-08-26T07:56:35;100261.13;;;29.94;69.12
50634;BME280;36596;55.798;38.462;2022-08-26T07:59:01;100283.97;;;30.07;65.95
50634;BME280;36596;55.798;38.462;2022-08-26T08:01:28;100273.09;;;30.12;64.64
50634;BME280;36596;55.798;38.462;2022-08-26T08:03:57;100265.47;;;30.13;62.48
50634;BME280;36596;55.798;38.462;2022-08-26T08:06:25;100258.25;;;30.08;60.72
50634;BME280;36596;55.798;38.462;2022-08-26T08:08:51;100265.00;;;30.22;59.80
50634;BME280;36596;55.798;38.462;2022-08-26T08:11:18;100263.81;;;30.19;58.53
50634;BME280;36596;55.798;38.462;2022-08-26T08:13:48;100261.00;;;30.23;59.12
50634;BME280;36596;55.798;38.462;2022-08-26T08:16:16;100259.78;;;30.24;58.51
50634;BME280;36596;55.798;38.462;2022-08-26T08:18:42;100252.94;;;30.25;58.92
50634;BME280;36596;55.798;38.462;2022-08-26T08:21:08;100264.94;;;30.36;57.14
50634;BME280;36596;55.798;38.462;2022-08-26T08:23:34;100270.09;;;30.48;55.60
50634;BME280;36596;55.798;38.462;2022-08-26T08:26:07;100256.44;;;30.47;56.15
50634;BME280;36596;55.798;38.462;2022-08-26T08:28:35;100267.22;;;30.59;56.32
50634;BME280;36596;55.798;38.462;2022-08-26T08:31:01;100252.28;;;30.66;55.68
50634;BME280;36596;55.798;38.462;2022-08-26T08:33:29;100262.69;;;30.73;52.99
50634;BME280;36596;55.798;38.462;2022-08-26T08:35:58;100262.59;;;30.83;52.88
50634;BME280;36596;55.798;38.462;2022-08-26T08:38:26;100237.19;;;30.94;52.15
50634;BME280;36596;55.798;38.462;2022-08-26T08:40:52;100251.59;;;31.04;50.00
50634;BME280;36596;55.798;38.462;2022-08-26T08:43:40;100258.31;;;31.17;51.90
50634;BME280;36596;55.798;38.462;2022-08-26T08:46:11;100259.16;;;31.14;49.95
50634;BME280;36596;55.798;38.462;2022-08-26T08:48:43;100255.41;;;31.28;49.17
50634;BME280;36596;55.798;38.462;2022-08-26T08:51:22;100254.50;;;31.73;49.92
50634;BME280;36596;55.798;38.462;2022-08-26T08:53:52;100254.09;;;32.05;48.35
50634;BME280;36596;55.798;38.462;2022-08-26T08:56:32;100244.97;;;32.52;49.15
50634;BME280;36596;55.798;38.462;2022-08-26T09:04:14;100245.75;;;33.03;45.68
50634;BME280;36596;55.798;38.462;2022-08-26T09:06:43;100235.28;;;33.04;44.20
50634;BME280;36596;55.798;38.462;2022-08-26T09:09:18;100236.59;;;33.19;43.58
50634;BME280;36596;55.798;38.462;2022-08-26T09:11:46;100226.06;;;33.23;41.56
50634;BME280;36596;55.798;38.462;2022-08-26T09:14:11;100215.72;;;33.37;41.79
50634;BME280;36596;55.798;38.462;2022-08-26T09:17:07;100228.00;;;34.07;42.62
50634;BME280;36596;55.798;38.462;2022-08-26T09:19:39;100226.94;;;34.70;41.25
50634;BME280;36596;55.798;38.462;2022-08-26T09:22:05;100219.88;;;34.62;38.32
50634;BME280;36596;55.798;38.462;2022-08-26T09:24:34;100223.50;;;34.79;37.34
50634;BME280;36596;55.798;38.462;2022-08-26T09:27:00;100220.06;;;35.04;37.21
50634;BME280;36596;55.798;38.462;2022-08-26T09:29:29;100226.09;;;35.35;34.20
50634;BME280;36596;55.798;38.462;2022-08-26T09:32:18;100222.63;;;35.86;34.62
50634;BME280;36596;55.798;38.462;2022-08-26T09:40:22;100223.91;;;36.11;40.34
50634;BME280;36596;55.798;38.462;2022-08-26T09:45:29;100211.13;;;34.56;36.59
50634;BME280;36596;55.798;38.462;2022-08-26T09:47:58;100212.78;;;35.03;35.90
50634;BME280;36596;55.798;38.462;2022-08-26T09:50:30;100214.47;;;35.59;31.83
50634;BME280;36596;55.798;38.462;2022-08-26T09:55:38;100221.75;;;34.85;31.56
50634;BME280;36596;55.798;38.462;2022-08-26T09:58:07;100207.88;;;34.21;33.04
50634;BME280;36596;55.798;38.462;2022-08-26T10:00:39;100208.75;;;34.02;35.08
50634;BME280;36596;55.798;38.462;2022-08-26T10:03:09;100206.38;;;33.60;34.56
50634;BME280;36596;55.798;38.462;2022-08-26T10:08:26;100202.81;;;32.92;38.79
50634;BME280;36596;55.798;38.462;2022-08-26T10:10:55;100207.00;;;32.56;37.71
50634;BME280;36596;55.798;38.462;2022-08-26T10:13:25;100210.88;;;32.70;37.39
50634;BME280;36596;55.798;38.462;2022-08-26T10:16:27;100206.81;;;32.44;36.78
50634;BME280;36596;55.798;38.462;2022-08-26T10:19:00;100201.75;;;32.31;36.60
50634;BME280;36596;55.798;38.462;2022-08-26T10:21:37;100196.97;;;32.79;37.54
50634;BME280;36596;55.798;38.462;2022-08-26T10:24:06;100196.69;;;33.17;38.77
50634;BME280;36596;55.798;38.462;2022-08-26T10:29:32;100191.38;;;33.19;36.97
50634;BME280;36596;55.798;38.462;2022-08-26T10:32:04;100180.41;;;33.25;36.67
50634;BME280;36596;55.798;38.462;2022-08-26T10:34:35;100177.00;;;33.34;36.70
50634;BME280;36596;55.798;38.462;2022-08-26T10:37:05;100185.78;;;33.79;36.95
50634;BME280;36596;55.798;38.462;2022-08-26T10:45:06;100175.81;;;38.23;26.91
50634;BME280;36596;55.798;38.462;2022-08-26T10:47:46;100167.78;;;38.40;24.49
50634;BME280;36596;55.798;38.462;2022-08-26T10:50:17;100158.63;;;37.42;25.30
50634;BME280;36596;55.798;38.462;2022-08-26T10:53:00;100165.63;;;36.58;27.58
50634;BME280;36596;55.798;38.462;2022-08-26T10:55:37;100161.25;;;35.50;26.69
50634;BME280;36596;55.798;38.462;2022-08-26T11:00:59;100151.13;;;35.79;28.77
50634;BME280;36596;55.798;38.462;2022-08-26T11:06:29;100141.13;;;36.73;27.20
50634;BME280;36596;55.798;38.462;2022-08-26T11:08:58;100155.66;;;36.41;26.40
50634;BME280;36596;55.798;38.462;2022-08-26T11:16:43;100138.91;;;37.79;25.63
50634;BME280;36596;55.798;38.462;2022-08-26T11:24:41;100140.50;;;37.80;23.52
50634;BME280;36596;55.798;38.462;2022-08-26T11:38:04;100129.44;;;37.51;24.33
50634;BME280;36596;55.798;38.462;2022-08-26T11:40:37;100126.59;;;36.11;26.19
50634;BME280;36596;55.798;38.462;2022-08-26T11:45:40;100135.31;;;34.93;27.79
50634;BME280;36596;55.798;38.462;2022-08-26T11:51:00;100146.25;;;34.78;28.55
50634;BME280;36596;55.798;38.462;2022-08-26T11:53:27;100133.41;;;34.74;29.56
50634;BME280;36596;55.798;38.462;2022-08-26T11:55:55;100126.44;;;34.62;32.14
50634;BME280;36596;55.798;38.462;2022-08-26T11:58:23;100126.25;;;34.53;29.85
50634;BME280;36596;55.798;38.462;2022-08-26T12:01:05;100131.03;;;34.39;29.12
50634;BME280;36596;55.798;38.462;2022-08-26T12:06:23;100134.06;;;34.48;28.32
50634;BME280;36596;55.798;38.462;2022-08-26T12:08:53;100121.00;;;35.56;27.08
50634;BME280;36596;55.798;38.462;2022-08-26T12:11:25;100128.38;;;35.66;25.73
50634;BME280;36596;55.798;38.462;2022-08-26T12:14:01;100130.50;;;35.49;25.85
50634;BME280;36596;55.798;38.462;2022-08-26T12:16:29;100125.88;;;35.42;27.19
50634;BME280;36596;55.798;38.462;2022-08-26T12:18:58;100110.63;;;35.36;27.33
50634;BME280;36596;55.798;38.462;2022-08-26T12:21:29;100113.75;;;36.45;25.45
50634;BME280;36596;55.798;38.462;2022-08-26T12:23:57;100110.84;;;37.37;23.13
50634;BME280;36596;55.798;38.462;2022-08-26T12:28:56;100085.56;;;38.02;21.24
50634;BME280;36596;55.798;38.462;2022-08-26T12:31:43;100101.50;;;38.86;21.66
50634;BME280;36596;55.798;38.462;2022-08-26T12:34:11;100099.34;;;39.61;20.25
50634;BME280;36596;55.798;38.462;2022-08-26T12:36:53;100096.41;;;40.13;20.14
50634;BME280;36596;55.798;38.462;2022-08-26T12:39:27;100094.59;;;40.88;19.83
50634;BME280;36596;55.798;38.462;2022-08-26T12:49:48;100076.78;;;41.23;16.86
50634;BME280;36596;55.798;38.462;2022-08-26T12:52:24;100089.41;;;41.31;15.91
50634;BME280;36596;55.798;38.462;2022-08-26T12:55:00;100078.94;;;41.58;15.45
50634;BME280;36596;55.798;38.462;2022-08-26T12:57:34;100081.81;;;41.58;15.10
50634;BME280;36596;55.798;38.462;2022-08-26T13:00:30;100081.00;;;42.08;15.98
50634;BME280;36596;55.798;38.462;2022-08-26T13:02:58;100074.56;;;41.92;15.99
50634;BME280;36596;55.798;38.462;2022-08-26T13:05:32;100076.50;;;41.51;16.09
50634;BME280;36596;55.798;38.462;2022-08-26T13:08:16;100075.00;;;41.26;16.73
50634;BME280;36596;55.798;38.462;2022-08-26T13:11:06;100062.94;;;41.66;16.72
50634;BME280;36596;55.798;38.462;2022-08-26T13:13:32;100067.81;;;41.30;17.12
50634;BME280;36596;55.798;38.462;2022-08-26T13:16:09;100055.88;;;41.47;17.26
50634;BME280;36596;55.798;38.462;2022-08-26T13:18:35;100064.88;;;40.56;18.00
50634;BME280;36596;55.798;38.462;2022-08-26T13:21:07;100072.81;;;39.27;19.45
50634;BME280;36596;55.798;38.462;2022-08-26T13:23:33;100070.31;;;37.86;20.12
50634;BME280;36596;55.798;38.462;2022-08-26T13:25:59;100067.69;;;37.07;21.03
50634;BME280;36596;55.798;38.462;2022-08-26T13:28:26;100063.38;;;37.78;21.14
50634;BME280;36596;55.798;38.462;2022-08-26T13:30:51;100062.25;;;38.90;20.08
50634;BME280;36596;55.798;38.462;2022-08-26T13:33:18;100051.59;;;40.04;19.54
50634;BME280;36596;55.798;38.462;2022-08-26T13:35:45;100038.13;;;41.43;19.99
50634;BME280;36596;55.798;38.462;2022-08-26T13:38:11;100043.06;;;41.42;18.96
50634;BME280;36596;55.798;38.462;2022-08-26T13:40:42;100047.69;;;41.39;18.02
50634;BME280;36596;55.798;38.462;2022-08-26T13:43:11;100047.06;;;41.65;17.78
50634;BME280;36596;55.798;38.462;2022-08-26T13:45:37;100048.69;;;41.51;17.28
50634;BME280;36596;55.798;38.462;2022-08-26T13:48:05;100036.66;;;41.32;18.09
50634;BME280;36596;55.798;38.462;2022-08-26T13:50:31;100036.63;;;41.17;17.47
50634;BME280;36596;55.798;38.462;2022-08-26T13:52:57;100036.75;;;41.38;17.22
50634;BME280;36596;55.798;38.462;2022-08-26T13:55:23;100039.19;;;41.30;17.24
50634;BME280;36596;55.798;38.462;2022-08-26T13:57:48;100039.22;;;41.15;18.17
50634;BME280;36596;55.798;38.462;2022-08-26T14:00:15;100051.69;;;40.88;17.43
50634;BME280;36596;55.798;38.462;2022-08-26T14:02:41;100039.44;;;40.18;17.55
50634;BME280;36596;55.798;38.462;2022-08-26T14:05:07;100042.47;;;39.48;18.17